Dark Hollow, Indiana
Current Conditions -  °F | °C
As of 6:06 AM on Saturday 20 Dec 2014 (Local Time) from KBMG Reporting Station
Light Snow Light Snow  
Wind Chill: 28°   Ceiling: 4300
Heat Index: 28°   Visibility: 4mi
Dew Point: 26°   Wind: 0mph
Humidity: 92%   Direction: NA
Pressure: 30.26"   Gusts: NA
Location:  38.8737°N, 86.4563°W
Report Text: KBMG 201106Z 00000KT 4SM -SN BR SCT006 OVC043 M02/M03 A3026 RMK AO2 P0000 T10221033
Loading
Personal Weather Stations






























Interactive Weather Map New forecast layout! Learn more

10-Day Weather Forecast

Advertisements
Track Severe Weather on mobile